Time;durP1;ratioP1;P1;durP2;ratioP2;P2;SDS_P1;SDS_P2;PMS_P1;PMS_P2;Temp;Humidity;BMP_temperature;BMP_pressure;BME280_temperature;BME280_humidity;BME280_pressure;Samples;Min_cycle;Max_cycle;Signal;HPM_P1;HPM_P2
2022/03/14 00:00:25;;;;;;;74.00;51.00;;;;;;;1.83;48.69;101566.59;109005;1267;23690;-76
2022/03/14 00:03:15;;;;;;;77.70;51.00;;;;;;;1.79;48.77;101567.31;108978;1263;22041;-76
2022/03/14 00:05:49;;;;;;;74.90;50.90;;;;;;;1.78;48.79;101569.45;109612;1263;22692;-76
2022/03/14 00:08:38;;;;;;;70.90;50.20;;;;;;;1.77;49.01;101571.10;109365;1262;22437;-77
2022/03/14 00:11:41;;;;;;;72.10;49.40;;;;;;;1.71;49.09;101576.78;109355;1263;21972;-76
2022/03/14 00:14:25;;;;;;;75.60;51.50;;;;;;;1.67;49.28;101577.17;109702;1260;24304;-77
2022/03/14 00:17:34;;;;;;;72.40;50.90;;;;;;;1.64;49.55;101574.55;109340;1264;23710;-76
2022/03/14 00:20:36;;;;;;;70.80;48.90;;;;;;;1.63;49.71;101576.50;109184;1264;23593;-76
2022/03/14 00:23:37;;;;;;;74.50;51.80;;;;;;;1.60;49.86;101573.39;108746;1272;24226;-76
2022/03/14 00:26:23;;;;;;;75.50;51.30;;;;;;;1.59;50.11;101570.46;108747;1271;23056;-76
2022/03/14 00:29:08;;;;;;;78.60;55.30;;;;;;;1.56;50.19;101572.89;108712;1270;23690;-76
2022/03/14 00:32:03;;;;;;;;;;;;;;;1.54;50.32;101569.70;108701;1270;23066;-77
2022/03/14 00:35:08;;;;;;;78.60;52.20;;;;;;;1.45;50.65;101572.41;108697;1267;22034;-76
2022/03/14 00:37:50;;;;;;;65.10;46.40;;;;;;;1.43;50.84;101572.53;108879;1267;23606;-77
2022/03/14 00:40:26;;;;;;;75.20;52.50;;;;;;;1.43;50.89;101570.79;108896;1270;21985;-76
2022/03/14 00:43:33;;;;;;;61.70;46.70;;;;;;;1.43;50.97;101568.34;109054;1267;21990;-77
2022/03/14 00:46:30;;;;;;;59.40;43.20;;;;;;;1.42;51.12;101565.63;109019;1267;21991;-77
2022/03/14 00:49:23;;;;;;;54.90;39.60;;;;;;;1.40;51.40;101567.82;108875;1270;21980;-76
2022/03/14 00:51:59;;;;;;;56.60;41.90;;;;;;;1.40;51.64;101563.27;108873;1267;23700;-77
2022/03/14 00:54:38;;;;;;;55.40;41.70;;;;;;;1.39;51.96;101565.04;108949;1269;22015;-75
2022/03/14 00:57:27;;;;;;;54.60;38.50;;;;;;;1.39;51.73;101565.45;108851;1267;23599;-77
2022/03/14 01:00:35;;;;;;;51.80;36.30;;;;;;;1.35;52.05;101567.02;108898;1266;23729;-77
2022/03/14 01:03:25;;;;;;;49.00;34.60;;;;;;;1.32;52.23;101568.02;109009;1267;23753;-77
2022/03/14 01:06:12;;;;;;;50.60;35.60;;;;;;;1.32;52.18;101570.14;108934;1267;21986;-77
2022/03/14 01:09:28;;;;;;;45.70;33.00;;;;;;;1.27;52.34;101567.96;108600;1273;24197;-76
2022/03/14 01:12:12;;;;;;;48.30;34.80;;;;;;;1.24;52.39;101571.25;108454;1274;22013;-77
2022/03/14 01:15:06;;;;;;;45.80;34.20;;;;;;;1.22;52.52;101566.83;108406;1274;23824;-76
2022/03/14 01:17:44;;;;;;;45.30;32.20;;;;;;;1.20;52.60;101566.22;108527;1273;22062;-77
2022/03/14 01:20:19;;;;;;;43.80;32.60;;;;;;;1.18;52.77;101563.89;108443;1275;21996;-77
2022/03/14 01:22:56;;;;;;;42.20;33.00;;;;;;;1.16;52.92;101561.73;108426;1274;23052;-75
2022/03/14 01:25:36;;;;;;;42.00;32.80;;;;;;;1.12;53.04;101561.91;108400;1273;21964;-75
2022/03/14 01:28:23;;;;;;;43.20;32.40;;;;;;;1.10;53.14;101566.22;108022;1276;23693;-76
2022/03/14 01:31:02;;;;;;;48.30;34.70;;;;;;;1.06;53.26;101563.97;107739;1279;22004;-76
2022/03/14 01:33:54;;;;;;;51.00;36.50;;;;;;;1.03;53.44;101568.50;108321;1279;21994;-76
2022/03/14 01:36:39;;;;;;;47.00;35.20;;;;;;;0.99;53.58;101569.36;108167;1279;23498;-76
2022/03/14 01:40:25;;;;;;;41.80;32.40;;;;;;;0.96;53.70;101571.25;108291;1276;21998;-76
2022/03/14 01:43:03;;;;;;;49.70;33.90;;;;;;;0.90;53.80;101573.09;108449;1276;22233;-76
2022/03/14 01:46:01;;;;;;;50.30;35.20;;;;;;;0.85;53.88;101578.73;108583;1269;21995;-76
2022/03/14 01:49:02;;;;;;;54.40;36.30;;;;;;;0.79;54.12;101579.54;109081;1267;23716;-76
2022/03/14 01:51:50;;;;;;;;;;;;;;;;;;;;;
2022/03/14 01:54:44;;;;;;;58.00;39.00;;;;;;;0.71;54.49;101579.39;108721;1270;22866;-76
2022/03/14 01:57:39;;;;;;;50.30;37.60;;;;;;;0.67;54.69;101579.59;108821;1270;24365;-76
2022/03/14 02:00:42;;;;;;;;;;;;;;;;;;;;;
2022/03/14 02:03:16;;;;;;;52.00;38.80;;;;;;;0.62;54.89;101582.11;108658;1273;22240;-76
2022/03/14 02:06:08;;;;;;;50.40;37.20;;;;;;;0.62;55.02;101581.05;108407;1276;22282;-76
2022/03/14 02:08:42;;;;;;;46.80;36.60;;;;;;;0.62;55.20;101577.94;108437;1276;23055;-76
2022/03/14 02:11:33;;;;;;;;;;;;;;;;;;;;;
2022/03/14 02:14:12;;;;;;;48.40;35.40;;;;;;;0.61;55.77;101576.08;108388;1276;22010;-77
2022/03/14 02:17:03;;;;;;;44.20;32.80;;;;;;;0.59;55.77;101576.15;108686;1270;21997;-76
2022/03/14 02:19:53;;;;;;;44.10;34.20;;;;;;;0.57;55.83;101576.95;108905;1270;23599;-76
2022/03/14 02:22:46;;;;;;;38.00;30.70;;;;;;;0.55;56.02;101584.34;108660;1270;22093;-76
2022/03/14 02:25:28;;;;;;;38.60;30.70;;;;;;;0.52;56.20;101581.23;108531;1270;22170;-76
2022/03/14 02:28:27;;;;;;;41.50;32.50;;;;;;;0.48;56.18;101582.61;108370;1277;22118;-77
2022/03/14 02:31:16;;;;;;;39.90;32.80;;;;;;;0.44;56.40;101581.88;108386;1276;21992;-76
2022/03/14 02:34:03;;;;;;;43.80;33.30;;;;;;;0.42;56.51;101584.05;108712;1270;21999;-77
2022/03/14 02:37:05;;;;;;;49.10;35.60;;;;;;;0.41;56.49;101587.41;108681;1270;22778;-77
2022/03/14 02:40:00;;;;;;;53.40;36.70;;;;;;;0.39;56.55;101586.65;108775;1266;24438;-76
2022/03/14 02:43:24;;;;;;;60.90;39.00;;;;;;;0.36;56.67;101592.18;109224;1264;23143;-76
2022/03/14 02:46:08;;;;;;;55.50;39.70;;;;;;;0.35;56.74;101596.90;109039;1264;22750;-76
2022/03/14 02:49:00;;;;;;;;;;;;;;;;;;;;;
2022/03/14 02:51:50;;;;;;;55.00;38.20;;;;;;;0.38;56.83;101604.34;109295;1264;21982;-77
2022/03/14 02:54:40;;;;;;;58.60;39.60;;;;;;;0.42;56.87;101603.33;109318;1264;22003;-78
2022/03/14 02:57:23;;;;;;;55.40;37.40;;;;;;;0.42;56.92;101599.00;109482;1262;23008;-75
2022/03/14 03:00:42;;;;;;;;;;;;;;;;;;;;;
2022/03/14 03:03:36;;;;;;;60.30;36.10;;;;;;;0.40;56.99;101606.19;108945;1267;22005;-76
2022/03/14 03:06:25;;;;;;;62.20;37.00;;;;;;;0.38;57.12;101608.36;109027;1266;23654;-76
2022/03/14 03:09:34;;;;;;;92.70;42.60;;;;;;;0.37;57.13;101605.80;109211;1263;22010;-76
2022/03/14 03:12:25;;;;;;;64.80;37.10;;;;;;;0.35;57.18;101602.27;108441;1276;22080;-77
2022/03/14 03:15:15;;;;;;;65.20;38.30;;;;;;;0.33;57.17;101605.80;108218;1279;22476;-78
2022/03/14 03:18:11;;;;;;;59.00;36.60;;;;;;;0.30;57.19;101603.19;108105;1279;22007;-76
2022/03/14 03:20:58;;;;;;;52.60;37.30;;;;;;;0.28;57.15;101605.92;108125;1279;22008;-76
2022/03/14 03:23:35;;;;;;;52.10;36.90;;;;;;;0.24;57.23;101604.31;108310;1279;23819;-76
2022/03/14 03:26:24;;;;;;;59.10;38.20;;;;;;;0.23;57.25;101608.87;108081;1279;22104;-76
2022/03/14 03:29:14;;;;;;;58.40;39.20;;;;;;;0.24;57.35;101613.52;107933;1283;21989;-75
2022/03/14 03:32:06;;;;;;;65.10;41.30;;;;;;;0.25;57.45;101616.58;107789;1285;22013;-76
2022/03/14 03:34:55;;;;;;;58.60;40.10;;;;;;;0.27;57.43;101618.39;108074;1279;22203;-76
2022/03/14 03:38:03;;;;;;;;;;;;;;;;;;;;;
2022/03/14 03:41:02;;;;;;;;;;;;;;;;;;;;;
2022/03/14 03:44:07;;;;;;;55.50;37.50;;;;;;;0.21;57.71;101616.25;108009;1282;22460;-77
2022/03/14 03:46:41;;;;;;;43.70;35.20;;;;;;;0.19;57.73;101621.52;107528;1282;23063;-77
2022/03/14 03:49:43;;;;;;;;;;;;;;;;;;;;;
2022/03/14 03:52:48;;;;;;;52.40;38.40;;;;;;;0.11;57.71;101618.08;108394;1276;23068;-75
2022/03/14 03:56:04;;;;;;;53.70;40.10;;;;;;;0.07;57.73;101620.90;108355;1276;22006;-76
2022/03/14 03:58:58;;;;;;;52.90;38.10;;;;;;;0.02;57.78;101615.23;108170;1276;22184;-75
2022/03/14 04:01:55;;;;;;;48.40;36.30;;;;;;;-0.02;57.88;101616.25;108294;1277;23794;-76
2022/03/14 04:05:31;;;;;;;48.80;36.60;;;;;;;-0.03;58.05;101613.02;108197;1276;22630;-76
2022/03/14 04:08:33;;;;;;;;;;;;;;;;;;;;;
2022/03/14 04:11:23;;;;;;;49.10;35.80;;;;;;;-0.03;58.23;101616.65;108483;1273;23700;-76
2022/03/14 04:14:12;;;;;;;50.00;36.80;;;;;;;-0.05;58.30;101617.93;108145;1279;22107;-76
2022/03/14 04:17:07;;;;;;;52.60;36.80;;;;;;;-0.05;58.36;101622.97;108235;1279;22025;-76
2022/03/14 04:20:16;;;;;;;50.80;38.30;;;;;;;-0.08;58.43;101620.52;108233;1279;22960;-76
2022/03/14 04:23:08;;;;;;;47.10;35.50;;;;;;;-0.12;58.54;101623.48;108306;1275;22308;-76
2022/03/14 04:25:49;;;;;;;46.90;34.90;;;;;;;-0.17;58.57;101625.06;108314;1279;22015;-76
2022/03/14 04:28:41;;;;;;;43.40;34.00;;;;;;;-0.20;58.65;101625.00;108277;1279;21995;-76
2022/03/14 04:31:31;;;;;;;51.20;36.80;;;;;;;-0.24;58.73;101622.59;108331;1276;23664;-76
2022/03/14 04:35:05;;;;;;;49.80;35.70;;;;;;;-0.29;58.67;101622.98;108674;1267;23171;-76
2022/03/14 04:38:07;;;;;;;47.40;35.30;;;;;;;-0.31;58.76;101625.14;108752;1270;21989;-76
2022/03/14 04:40:43;;;;;;;50.00;36.70;;;;;;;-0.30;58.89;101625.62;108346;1276;22033;-76
2022/03/14 04:43:45;;;;;;;50.00;34.60;;;;;;;-0.28;58.99;101627.08;108235;1276;22087;-77
2022/03/14 04:46:39;;;;;;;46.10;33.90;;;;;;;-0.29;59.03;101625.56;108021;1279;23089;-77
2022/03/14 04:49:34;;;;;;;50.40;36.80;;;;;;;-0.30;59.11;101630.47;108029;1279;22144;-77
2022/03/14 04:53:08;;;;;;;;;;;;;;;;;;;;;
2022/03/14 04:56:04;;;;;;;46.30;36.70;;;;;;;-0.41;59.32;101629.21;108457;1273;24300;-76
2022/03/14 04:58:53;;;;;;;46.20;35.90;;;;;;;-0.45;59.37;101630.63;108437;1273;23163;-77
2022/03/14 05:01:57;;;;;;;48.00;37.20;;;;;;;-0.49;59.57;101632.66;108793;1270;22021;-78
2022/03/14 05:04:58;;;;;;;50.40;34.80;;;;;;;-0.52;59.53;101635.91;109034;1259;22160;-77
2022/03/14 05:07:56;;;;;;;54.10;38.00;;;;;;;-0.53;59.59;101633.00;109808;1260;24346;-78
2022/03/14 05:10:45;;;;;;;48.60;36.70;;;;;;;-0.53;59.68;101635.77;109646;1260;22073;-77
2022/03/14 05:13:44;;;;;;;55.50;37.90;;;;;;;-0.51;59.75;101635.67;109438;1260;23044;-77
2022/03/14 05:16:43;;;;;;;54.70;41.40;;;;;;;-0.47;59.93;101641.23;109812;1260;23095;-77
2022/03/14 05:19:24;;;;;;;53.20;42.00;;;;;;;-0.44;59.84;101639.74;109138;1264;22039;-78
2022/03/14 05:22:55;;;;;;;51.50;41.40;;;;;;;-0.43;59.89;101647.67;109172;1265;23074;-77
2022/03/14 05:26:05;;;;;;;54.40;41.70;;;;;;;-0.44;59.98;101654.83;109049;1267;22381;-76
2022/03/14 05:28:41;;;;;;;56.60;44.80;;;;;;;-0.45;59.98;101661.09;108911;1267;22449;-77
2022/03/14 05:31:48;;;;;;;58.70;44.70;;;;;;;-0.44;60.27;101665.35;108866;1268;21988;-77
2022/03/14 05:34:23;;;;;;;53.80;43.00;;;;;;;-0.42;60.15;101670.13;108842;1270;23680;-76
2022/03/14 05:36:58;;;;;;;60.00;45.50;;;;;;;-0.41;60.11;101670.77;108919;1264;23646;-75
2022/03/14 05:39:30;;;;;;;61.90;44.40;;;;;;;-0.38;60.11;101672.02;109479;1264;22030;-75
2022/03/14 05:42:02;;;;;;;61.60;49.40;;;;;;;-0.34;60.12;101679.14;108961;1264;23077;-75
2022/03/14 05:44:34;;;;;;;64.60;48.40;;;;;;;-0.31;60.15;101682.77;108910;1267;23122;-75
2022/03/14 05:47:04;;;;;;;65.10;47.50;;;;;;;-0.26;60.22;101684.49;108900;1267;22192;-76
2022/03/14 05:49:35;;;;;;;62.70;48.40;;;;;;;-0.19;60.07;101680.90;108510;1273;21984;-75
2022/03/14 05:52:21;;;;;;;58.40;46.50;;;;;;;-0.12;60.19;101680.77;108065;1277;22006;-76
2022/03/14 05:54:54;;;;;;;57.50;43.80;;;;;;;-0.06;60.18;101683.94;107601;1282;22443;-76
2022/03/14 05:57:32;;;;;;;;;;;;;;;-0.03;59.97;101685.05;108136;1279;22027;-75
2022/03/14 06:00:13;;;;;;;;;;;;;;;-0.07;60.18;101684.86;108366;1279;22853;-75
2022/03/14 06:02:52;;;;;;;55.80;43.00;;;;;;;-0.10;60.28;101692.79;108255;1276;23718;-75
2022/03/14 06:05:23;;;;;;;69.60;55.00;;;;;;;-0.07;60.24;101698.23;108491;1276;22062;-75
2022/03/14 06:08:02;;;;;;;65.80;46.70;;;;;;;-0.02;60.17;101695.75;108591;1270;23081;-75
2022/03/14 06:10:32;;;;;;;56.90;44.80;;;;;;;0.03;60.06;101700.23;109007;1264;23045;-75
2022/03/14 06:13:13;;;;;;;62.20;44.50;;;;;;;0.07;59.95;101699.88;109492;1261;23637;-75
2022/03/14 06:15:47;;;;;;;66.80;47.90;;;;;;;0.11;59.93;101703.64;109752;1259;21983;-76
2022/03/14 06:18:32;;;;;;;61.10;44.10;;;;;;;0.19;59.92;101705.92;109630;1261;23024;-76
2022/03/14 06:21:02;;;;;;;59.80;45.60;;;;;;;0.27;59.73;101704.86;109849;1258;23046;-76
2022/03/14 06:23:34;;;;;;;68.80;49.50;;;;;;;0.36;59.70;101705.70;109510;1264;23682;-76
2022/03/14 06:26:07;;;;;;;63.90;44.60;;;;;;;0.44;59.55;101707.21;108923;1263;22769;-76
2022/03/14 06:28:36;;;;;;;;;;;;;;;0.54;59.54;101706.23;109119;1264;21969;-76
2022/03/14 06:31:09;;;;;;;60.80;43.60;;;;;;;0.56;59.61;101705.29;109381;1264;23551;-76
2022/03/14 06:33:45;;;;;;;;;;;;;;;0.63;59.55;101709.98;108840;1268;22090;-75
2022/03/14 06:36:27;;;;;;;;;;;;;;;;;;;;;
2022/03/14 06:39:01;;;;;;;61.30;42.40;;;;;;;0.78;59.40;101714.70;108978;1268;22082;-76
2022/03/14 06:41:51;;;;;;;59.10;43.00;;;;;;;0.89;59.40;101715.17;109207;1264;21974;-76
2022/03/14 06:44:21;;;;;;;57.20;45.10;;;;;;;1.04;59.45;101715.17;109232;1264;23052;-76
2022/03/14 06:47:16;;;;;;;52.20;40.10;;;;;;;1.21;59.24;101719.05;109041;1265;22450;-76
2022/03/14 06:49:47;;;;;;;55.00;42.50;;;;;;;1.37;59.07;101718.61;109244;1264;23062;-76
2022/03/14 06:52:21;;;;;;;56.90;42.00;;;;;;;1.56;58.93;101718.72;109402;1261;23559;-76
2022/03/14 06:54:54;;;;;;;52.50;41.30;;;;;;;1.80;58.69;101717.72;109997;1260;23815;-76
2022/03/14 06:57:28;;;;;;;58.70;43.50;;;;;;;2.05;58.63;101719.91;109240;1262;21991;-76
2022/03/14 06:59:59;;;;;;;52.60;43.40;;;;;;;2.32;58.17;101722.14;109572;1263;23612;-76
2022/03/14 07:02:39;;;;;;;55.70;45.60;;;;;;;2.63;58.16;101730.06;109177;1267;22440;-76
2022/03/14 07:05:17;;;;;;;52.50;38.10;;;;;;;2.99;57.92;101736.95;108687;1273;21983;-76
2022/03/14 07:07:48;;;;;;;54.70;37.60;;;;;;;3.40;57.28;101735.85;108548;1273;22027;-76
2022/03/14 07:10:18;;;;;;;43.30;33.30;;;;;;;3.85;57.18;101734.63;108720;1273;21982;-78
2022/03/14 07:12:50;;;;;;;;;;;;;;;4.45;57.25;101730.17;108696;1272;22914;-76
2022/03/14 07:15:33;;;;;;;39.30;31.70;;;;;;;4.94;55.30;101732.86;108761;1268;21972;-76
2022/03/14 07:18:03;;;;;;;39.10;33.50;;;;;;;5.34;53.23;101731.83;108881;1267;22751;-76
2022/03/14 07:20:33;;;;;;;38.70;31.90;;;;;;;5.78;52.31;101737.69;108961;1264;22023;-76
2022/03/14 07:23:14;;;;;;;40.10;30.80;;;;;;;6.17;50.58;101743.32;109206;1259;21980;-76
2022/03/14 07:25:49;;;;;;;37.60;30.00;;;;;;;6.49;49.34;101745.80;108873;1267;21973;-76
2022/03/14 07:28:21;;;;;;;40.60;32.10;;;;;;;6.82;48.33;101746.63;109199;1265;23046;-76
2022/03/14 07:30:55;;;;;;;41.70;35.00;;;;;;;7.20;47.92;101748.29;108982;1265;22059;-79
2022/03/14 07:33:26;;;;;;;42.90;34.60;;;;;;;7.54;46.63;101749.61;109208;1267;22019;-75
2022/03/14 07:36:03;;;;;;;43.50;36.10;;;;;;;7.78;45.59;101750.08;109217;1265;21990;-76
2022/03/14 07:38:38;;;;;;;41.40;33.30;;;;;;;7.93;44.16;101747.60;109225;1267;22001;-75
2022/03/14 07:41:10;;;;;;;36.70;32.20;;;;;;;8.11;44.14;101747.45;109268;1264;22006;-77
2022/03/14 07:43:45;;;;;;;43.00;35.50;;;;;;;8.36;43.58;101752.70;109333;1259;21977;-77
2022/03/14 07:46:23;;;;;;;39.90;33.70;;;;;;;8.53;42.22;101753.34;109672;1259;23052;-76
2022/03/14 07:48:59;;;;;;;36.30;30.30;;;;;;;8.61;41.37;101753.91;109398;1261;23090;-78
2022/03/14 07:51:46;;;;;;;32.30;27.20;;;;;;;8.74;41.01;101754.84;109710;1260;23599;-78
2022/03/14 07:54:40;;;;;;;;;;;;;;;;;;;;;
2022/03/14 07:57:31;;;;;;;33.30;28.30;;;;;;;9.11;40.49;101754.52;109796;1260;23672;-78
2022/03/14 08:00:22;;;;;;;38.70;31.70;;;;;;;9.27;39.96;101754.79;109833;1260;22985;-76
2022/03/14 08:03:13;;;;;;;46.30;36.20;;;;;;;9.36;38.73;101752.12;109856;1260;22045;-78
2022/03/14 08:10:00;;;;;;;36.50;30.40;;;;;;;9.80;38.48;101750.95;108650;1273;23979;-77
2022/03/14 08:13:00;;;;;;;39.80;32.30;;;;;;;10.08;38.25;101746.27;109448;1267;22410;-78
2022/03/14 08:15:52;;;;;;;43.50;34.60;;;;;;;10.52;37.98;101744.44;109171;1269;21985;-80
2022/03/14 08:18:39;;;;;;;53.70;44.20;;;;;;;10.90;36.74;101750.31;108934;1267;21964;-77
2022/03/14 08:21:21;;;;;;;60.00;45.60;;;;;;;11.03;35.66;101750.36;108872;1264;24760;-78
2022/03/14 08:24:07;;;;;;;47.30;34.60;;;;;;;11.14;35.21;101756.46;109620;1260;23037;-78
2022/03/14 08:27:18;;;;;;;34.20;28.20;;;;;;;11.25;34.67;101755.28;109176;1267;23687;-78
2022/03/14 08:30:13;;;;;;;48.00;33.20;;;;;;;11.28;33.64;101755.20;109148;1267;21970;-78
2022/03/14 08:33:09;;;;;;;36.50;27.90;;;;;;;11.53;33.82;101754.72;109183;1267;23098;-77
2022/03/14 08:35:53;;;;;;;42.70;30.90;;;;;;;11.74;33.29;101751.41;109054;1267;23618;-78
2022/03/14 08:38:44;;;;;;;36.00;29.20;;;;;;;11.98;32.61;101756.41;109079;1267;23987;-79
2022/03/14 08:41:36;;;;;;;32.70;25.30;;;;;;;12.10;31.16;101760.09;108812;1270;21991;-78
2022/03/14 08:44:25;;;;;;;37.50;29.50;;;;;;;11.97;31.02;101751.02;108679;1271;23708;-78
2022/03/14 08:47:03;;;;;;;48.10;33.40;;;;;;;12.15;31.00;101747.48;109063;1263;23111;-78
2022/03/14 08:49:48;;;;;;;39.40;29.40;;;;;;;12.51;31.05;101745.42;109587;1263;21964;-78
2022/03/14 08:52:42;;;;;;;;;;;;;;;12.80;29.88;101743.18;109475;1263;23672;-78
2022/03/14 08:55:34;;;;;;;33.20;25.50;;;;;;;12.68;29.09;101743.27;109557;1263;22293;-79
2022/03/14 08:58:27;;;;;;;28.60;24.30;;;;;;;12.78;29.35;101740.23;110059;1254;21978;-77
2022/03/14 09:01:05;;;;;;;32.50;27.20;;;;;;;13.07;28.71;101739.32;110776;1250;22730;-78
2022/03/14 09:03:44;;;;;;;42.30;28.20;;;;;;;13.34;28.45;101736.34;110806;1251;21964;-78
2022/03/14 09:06:43;;;;;;;29.30;24.10;;;;;;;13.56;27.49;101725.84;110357;1254;23576;-78
2022/03/14 09:09:21;;;;;;;29.10;23.90;;;;;;;13.80;26.83;101725.33;110343;1253;23157;-78
2022/03/14 09:12:06;;;;;;;74.40;66.30;;;;;;;13.84;26.11;101720.35;110596;1254;21968;-81
2022/03/14 09:14:45;;;;;;;;;;;;;;;13.92;25.99;101722.02;110571;1254;23624;-80
2022/03/14 09:17:47;;;;;;;30.40;25.10;;;;;;;14.05;26.00;101715.02;110603;1254;22104;-82
2022/03/14 09:20:39;;;;;;;27.20;22.70;;;;;;;14.41;25.79;101713.80;110395;1257;23084;-82
2022/03/14 09:23:20;;;;;;;24.10;20.60;;;;;;;14.58;24.76;101712.15;109488;1263;23682;-80
2022/03/14 09:26:15;;;;;;;30.30;24.80;;;;;;;14.53;24.26;101709.83;108939;1267;22751;-82
2022/03/14 09:28:47;;;;;;;29.60;23.40;;;;;;;14.54;24.86;101706.59;109375;1267;23697;-81
2022/03/14 09:31:31;;;;;;;27.10;22.90;;;;;;;14.80;25.06;101706.14;109487;1266;21985;-81
2022/03/14 09:34:09;;;;;;;21.90;19.40;;;;;;;14.88;24.35;101711.91;109302;1266;22093;-80
2022/03/14 09:36:48;;;;;;;20.40;16.80;;;;;;;14.62;23.56;101706.98;109388;1266;22129;-82
2022/03/14 09:40:00;;;;;;;;;;;;;;;;;;;;;
2022/03/14 09:42:45;;;;;;;21.90;16.00;;;;;;;14.37;22.84;101706.90;110584;1257;23110;-82
2022/03/14 09:45:45;;;;;;;17.10;13.80;;;;;;;14.67;23.23;101703.60;110341;1255;21962;-79
2022/03/14 09:48:45;;;;;;;16.80;13.90;;;;;;;14.81;22.13;101706.94;110162;1260;23726;-80
2022/03/14 09:51:27;;;;;;;22.80;14.90;;;;;;;14.73;21.87;101706.16;109745;1260;23063;-81
2022/03/14 09:54:11;;;;;;;21.80;12.50;;;;;;;14.90;21.66;101705.80;110000;1260;21982;-80
2022/03/14 09:56:56;;;;;;;22.40;15.50;;;;;;;15.14;20.14;101707.38;109993;1259;22001;-79
2022/03/14 09:59:32;;;;;;;24.90;12.90;;;;;;;15.14;19.17;101706.11;109275;1266;22749;-80
2022/03/14 10:02:33;;;;;;;42.90;15.00;;;;;;;15.20;19.40;101703.29;109340;1263;23687;-80
2022/03/14 10:05:25;;;;;;;21.70;13.30;;;;;;;15.59;19.62;101701.80;109866;1260;21962;-80
2022/03/14 10:08:18;;;;;;;20.60;14.20;;;;;;;15.87;19.36;101703.62;109927;1260;22062;-80
2022/03/14 10:11:03;;;;;;;18.90;13.70;;;;;;;16.06;18.68;101695.81;109927;1261;21938;-80
2022/03/14 10:13:52;;;;;;;17.00;11.80;;;;;;;16.08;18.13;101698.20;109898;1260;21971;-79
2022/03/14 10:16:32;;;;;;;22.50;17.30;;;;;;;16.41;18.52;101690.52;109916;1260;23075;-81
2022/03/14 10:19:42;;;;;;;30.80;27.40;;;;;;;17.10;18.55;101685.12;110239;1259;24441;-78
2022/03/14 10:22:21;;;;;;;34.20;19.80;;;;;;;17.71;17.88;101687.91;110296;1260;22025;-79
2022/03/14 10:25:11;;;;;;;24.00;18.40;;;;;;;18.22;17.82;101692.21;110123;1260;23707;-80
2022/03/14 10:28:00;;;;;;;16.60;13.50;;;;;;;18.90;17.57;101699.93;110399;1257;23689;-80
2022/03/14 10:30:38;;;;;;;16.50;12.00;;;;;;;19.38;16.86;101700.08;109903;1258;21981;-78
2022/03/14 10:33:30;;;;;;;24.60;12.40;;;;;;;19.86;16.08;101705.75;110383;1257;21987;-80
2022/03/14 10:36:46;;;;;;;13.00;11.00;;;;;;;19.66;15.22;101709.31;110265;1257;21978;-79
2022/03/14 10:39:36;;;;;;;14.70;12.20;;;;;;;19.27;15.14;101705.13;111384;1249;22059;-78
2022/03/14 10:42:41;;;;;;;19.60;13.80;;;;;;;19.20;15.45;101703.55;111013;1249;21957;-80
2022/03/14 10:45:20;;;;;;;18.20;12.90;;;;;;;19.88;15.96;101700.17;111211;1254;23610;-78
2022/03/14 10:48:33;;;;;;;17.00;13.70;;;;;;;20.30;14.62;101692.09;110902;1255;21983;-79
2022/03/14 10:51:26;;;;;;;;;;;;;;;;;;;;;
2022/03/14 10:54:26;;;;;;;18.40;14.60;;;;;;;19.97;14.63;101689.66;110851;1259;21985;-79
2022/03/14 10:57:25;;;;;;;18.60;12.60;;;;;;;19.83;14.30;101679.90;109681;1263;21974;-80
2022/03/14 11:00:26;;;;;;;17.00;13.20;;;;;;;19.70;14.63;101673.02;109408;1268;22047;-80
2022/03/14 11:03:58;;;;;;;16.40;13.50;;;;;;;19.66;14.31;101667.37;109355;1267;21977;-79
2022/03/14 11:06:45;;;;;;;21.30;15.10;;;;;;;19.27;14.17;101655.51;109622;1266;21959;-79
2022/03/14 11:10:11;;;;;;;18.90;13.60;;;;;;;19.10;14.89;101657.81;110027;1263;22028;-79
2022/03/14 11:13:20;;;;;;;15.00;13.40;;;;;;;18.81;14.85;101657.73;110369;1263;22351;-80
2022/03/14 11:16:41;;;;;;;19.30;14.10;;;;;;;17.75;14.87;101650.54;109470;1263;21942;-80
2022/03/14 11:19:44;;;;;;;;;;;;;;;;;;;;;
2022/03/14 11:22:41;;;;;;;16.70;14.00;;;;;;;15.55;16.20;101646.22;109536;1263;22069;-79
2022/03/14 11:25:58;;;;;;;22.90;16.10;;;;;;;14.80;16.80;101639.83;109690;1263;22996;-80
2022/03/14 11:29:19;;;;;;;18.60;14.10;;;;;;;14.11;17.51;101644.91;108975;1270;23052;-79
2022/03/14 11:32:17;;;;;;;17.30;14.20;;;;;;;13.49;18.14;101639.50;109232;1263;21979;-79
2022/03/14 11:35:16;;;;;;;18.70;14.30;;;;;;;13.18;18.67;101637.05;110077;1257;22079;-79
2022/03/14 11:38:00;;;;;;;16.10;13.00;;;;;;;13.04;18.99;101633.35;109525;1261;21975;-79
2022/03/14 11:40:40;;;;;;;15.60;13.70;;;;;;;12.86;19.13;101628.95;109549;1261;22886;-78
2022/03/14 11:43:18;;;;;;;16.60;13.30;;;;;;;12.66;19.34;101632.80;109428;1261;22017;-78
2022/03/14 11:46:04;;;;;;;21.70;16.30;;;;;;;12.51;19.62;101629.66;109603;1257;22279;-78
2022/03/14 11:49:08;;;;;;;;;;;;;;;12.48;19.86;101624.52;110320;1255;21946;-78
2022/03/14 11:52:24;;;;;;;17.40;13.30;;;;;;;12.49;20.14;101627.91;110436;1255;22253;-78
2022/03/14 11:55:04;;;;;;;18.80;12.60;;;;;;;12.48;20.03;101624.52;109387;1260;22942;-80
2022/03/14 11:58:05;;;;;;;19.40;16.20;;;;;;;12.43;20.21;101614.27;110456;1254;22007;-80
2022/03/14 12:00:50;;;;;;;27.70;18.20;;;;;;;12.35;20.13;101614.98;109945;1260;21934;-78
2022/03/14 12:03:55;;;;;;;25.20;18.00;;;;;;;12.27;20.28;101614.52;109935;1261;23078;-79
2022/03/14 12:06:49;;;;;;;17.80;15.70;;;;;;;12.25;20.33;101611.31;109809;1260;23071;-78
2022/03/14 12:09:35;;;;;;;24.90;17.40;;;;;;;12.28;20.37;101611.98;110116;1260;23052;-79
2022/03/14 12:12:36;;;;;;;22.90;15.60;;;;;;;12.31;20.38;101610.59;109479;1260;23135;-79
2022/03/14 12:15:14;;;;;;;15.70;13.20;;;;;;;12.37;20.40;101614.79;108923;1266;23686;-79
2022/03/14 12:18:33;;;;;;;19.00;14.90;;;;;;;12.40;20.40;101610.80;108818;1267;21978;-79
2022/03/14 12:21:54;;;;;;;17.80;13.60;;;;;;;12.42;20.48;101613.03;108700;1270;23502;-78
2022/03/14 12:24:36;;;;;;;16.10;11.70;;;;;;;12.44;20.45;101607.59;108430;1270;21986;-78
2022/03/14 12:27:36;;;;;;;22.60;16.10;;;;;;;12.44;20.60;101606.20;108727;1270;22394;-80
2022/03/14 12:30:35;;;;;;;19.80;15.50;;;;;;;12.48;20.67;101605.05;108521;1273;22007;-78
2022/03/14 12:33:30;;;;;;;20.20;12.90;;;;;;;12.51;20.76;101609.16;108218;1276;24032;-80
2022/03/14 12:36:22;;;;;;;14.70;12.30;;;;;;;12.54;20.73;101609.83;108415;1273;21984;-78
2022/03/14 12:39:20;;;;;;;20.60;15.20;;;;;;;12.53;20.78;101608.51;108873;1267;21979;-78
2022/03/14 12:42:27;;;;;;;18.10;14.40;;;;;;;12.59;20.93;101609.53;109475;1260;23572;-79
2022/03/14 12:45:39;;;;;;;16.70;12.40;;;;;;;12.56;21.07;101610.59;109945;1260;21975;-79
2022/03/14 12:48:28;;;;;;;19.00;13.50;;;;;;;12.53;21.22;101612.19;109947;1255;23705;-79
2022/03/14 12:51:24;;;;;;;18.20;14.40;;;;;;;12.57;21.20;101607.21;110543;1249;21956;-80
2022/03/14 12:54:09;;;;;;;18.50;13.70;;;;;;;12.57;21.29;101612.91;110647;1251;21957;-79
2022/03/14 12:57:11;;;;;;;19.10;15.10;;;;;;;12.55;21.52;101614.63;110997;1249;23673;-78
2022/03/14 12:59:48;;;;;;;19.40;15.60;;;;;;;12.52;21.76;101617.38;110753;1249;21969;-79
2022/03/14 13:02:44;;;;;;;17.50;13.60;;;;;;;12.54;21.98;101616.50;110808;1251;23136;-80
2022/03/14 13:05:26;;;;;;;20.70;14.90;;;;;;;12.56;21.67;101616.83;110734;1249;23344;-80
2022/03/14 13:08:11;;;;;;;20.90;14.70;;;;;;;12.61;21.41;101613.89;110782;1249;22016;-79
2022/03/14 13:10:54;;;;;;;16.00;11.00;;;;;;;12.66;21.09;101617.95;110397;1254;23765;-79
2022/03/14 13:13:38;;;;;;;21.40;16.20;;;;;;;12.67;20.52;101612.96;110861;1253;21961;-78
2022/03/14 13:16:39;;;;;;;25.50;18.30;;;;;;;12.59;20.40;101614.73;110749;1254;22053;-81